createdAt,value
2019-02-07T00:00:34.867Z,1.20
2019-02-07T00:03:03.579Z,1.20
2019-02-07T00:05:32.387Z,1.20
2019-02-07T00:08:00.954Z,1.10
2019-02-07T00:10:29.696Z,1.10
2019-02-07T00:12:58.630Z,1.10
2019-02-07T00:15:27.539Z,1.10
2019-02-07T00:17:56.245Z,1.10
2019-02-07T00:20:25.327Z,1.10
2019-02-07T00:22:53.975Z,1.10
2019-02-07T00:25:24.127Z,1.00
2019-02-07T00:27:53.081Z,1.10
2019-02-07T00:30:22.897Z,1.10
2019-02-07T00:32:51.591Z,1.10
2019-02-07T00:35:20.337Z,1.10
2019-02-07T00:37:48.898Z,1.10
2019-02-07T00:40:19.517Z,1.10
2019-02-07T00:42:48.894Z,1.10
2019-02-07T00:45:19.409Z,1.10
2019-02-07T00:47:49.271Z,1.10
2019-02-07T00:50:19.383Z,1.00
2019-02-07T00:52:48.109Z,1.00
2019-02-07T00:55:19.206Z,1.10
2019-02-07T00:57:47.926Z,1.10
2019-02-07T01:00:22.723Z,1.00
2019-02-07T01:02:52.023Z,1.10
2019-02-07T01:05:22.347Z,1.00
2019-02-07T01:07:51.651Z,1.00
2019-02-07T01:10:30.695Z,1.00
2019-02-07T01:12:59.443Z,1.00
2019-02-07T01:15:29.790Z,1.00
2019-02-07T01:17:58.596Z,1.00
2019-02-07T01:20:27.568Z,1.00
2019-02-07T01:22:56.781Z,1.00
2019-02-07T01:25:26.377Z,0.90
2019-02-07T01:27:55.775Z,0.80
2019-02-07T01:30:28.871Z,0.80
2019-02-07T01:32:57.573Z,0.80
2019-02-07T01:35:26.437Z,0.70
2019-02-07T01:37:55.771Z,0.70
2019-02-07T01:40:25.249Z,0.70
2019-02-07T01:42:55.679Z,0.70
2019-02-07T01:45:24.948Z,0.70
2019-02-07T01:47:53.585Z,0.70
2019-02-07T01:50:24.222Z,0.70
2019-02-07T01:52:53.451Z,0.60
2019-02-07T01:55:22.688Z,0.60
2019-02-07T01:57:51.393Z,0.60
2019-02-07T02:00:21.485Z,0.60
2019-02-07T02:02:51.402Z,0.60
2019-02-07T02:05:20.705Z,0.50
2019-02-07T02:07:51.452Z,0.50
2019-02-07T02:10:25.694Z,0.50
2019-02-07T02:12:54.793Z,0.60
2019-02-07T02:15:25.323Z,0.50
2019-02-07T02:17:54.060Z,0.50
2019-02-07T02:20:25.311Z,0.60
2019-02-07T02:22:55.640Z,0.50
2019-02-07T02:25:24.733Z,0.50
2019-02-07T02:27:53.835Z,0.50
2019-02-07T02:30:30.919Z,0.50
2019-02-07T02:33:00.214Z,0.50
2019-02-07T02:35:28.916Z,0.40
2019-02-07T02:37:57.922Z,0.40
2019-02-07T02:40:26.637Z,0.40
2019-02-07T02:42:55.992Z,0.40
2019-02-07T02:45:36.616Z,0.40
2019-02-07T02:47:58.265Z,0.50
2019-02-07T02:50:27.075Z,0.40
2019-02-07T02:52:55.861Z,0.40
2019-02-07T02:55:26.140Z,0.40
2019-02-07T02:57:55.062Z,0.40
2019-02-07T03:00:44.431Z,0.50
2019-02-07T03:03:23.639Z,0.50
2019-02-07T03:05:59.816Z,0.50
2019-02-07T03:08:42.314Z,0.50
2019-02-07T03:11:18.718Z,0.50
2019-02-07T03:13:54.011Z,0.50
2019-02-07T03:16:27.541Z,0.60
2019-02-07T03:19:06.681Z,0.50
2019-02-07T03:21:39.869Z,0.60
2019-02-07T03:24:13.423Z,0.60
2019-02-07T03:26:43.782Z,0.60
2019-02-07T03:29:16.578Z,0.60
2019-02-07T03:31:56.517Z,0.60
2019-02-07T03:34:36.000Z,0.60
2019-02-07T03:37:06.391Z,0.60
2019-02-07T03:39:36.591Z,0.60
2019-02-07T03:42:19.868Z,0.60
2019-02-07T03:44:56.246Z,0.60
2019-02-07T03:47:43.313Z,0.60
2019-02-07T03:50:13.682Z,0.60
2019-02-07T03:53:00.548Z,0.60
2019-02-07T03:55:30.745Z,0.60
2019-02-07T03:58:18.400Z,0.60
2019-02-07T04:00:54.871Z,0.60
2019-02-07T04:03:43.563Z,0.60
2019-02-07T04:06:19.455Z,0.60
2019-02-07T04:08:55.950Z,0.60
2019-02-07T04:11:28.986Z,0.50
2019-02-07T04:13:59.465Z,0.50
2019-02-07T04:16:32.413Z,0.50
2019-02-07T04:19:14.846Z,0.50
2019-02-07T04:21:45.140Z,0.50
2019-02-07T04:24:18.452Z,0.50
2019-02-07T04:26:53.288Z,0.50
2019-02-07T04:29:39.908Z,0.40
2019-02-07T04:32:12.907Z,0.50
2019-02-07T04:35:00.490Z,0.50
2019-02-07T04:37:36.523Z,0.50
2019-02-07T04:40:26.487Z,0.50
2019-02-07T04:42:56.698Z,0.50
2019-02-07T04:45:32.835Z,0.50
2019-02-07T04:48:11.799Z,0.40
2019-02-07T04:50:45.261Z,0.50
2019-02-07T04:53:27.766Z,0.40
2019-02-07T04:56:04.336Z,0.40
2019-02-07T04:58:34.537Z,0.40
2019-02-07T05:01:05.678Z,0.40
2019-02-07T05:03:35.889Z,0.40
2019-02-07T05:06:23.162Z,0.40
2019-02-07T05:08:53.369Z,0.40
2019-02-07T05:11:35.700Z,0.40
2019-02-07T05:14:22.196Z,0.40
2019-02-07T05:17:04.201Z,0.40
2019-02-07T05:19:34.740Z,0.40
2019-02-07T05:22:05.450Z,0.40
2019-02-07T05:24:51.884Z,0.40
2019-02-07T05:27:22.291Z,0.40
2019-02-07T05:30:09.427Z,0.40
2019-02-07T05:32:57.815Z,0.40
2019-02-07T05:35:44.224Z,0.40
2019-02-07T05:38:20.514Z,0.40
2019-02-07T05:40:50.754Z,0.40
2019-02-07T05:43:21.160Z,0.40
2019-02-07T05:46:00.246Z,0.40
2019-02-07T05:48:33.297Z,0.40
2019-02-07T05:51:19.035Z,0.40
2019-02-07T05:53:49.310Z,0.40
2019-02-07T05:56:26.366Z,0.40
2019-02-07T05:59:02.246Z,0.40
2019-02-07T06:01:36.035Z,0.40
2019-02-07T06:04:07.202Z,0.50
2019-02-07T06:06:50.110Z,0.40
2019-02-07T06:09:20.400Z,0.50
2019-02-07T06:11:59.651Z,0.40
2019-02-07T06:14:35.421Z,0.40
2019-02-07T06:17:13.001Z,0.40
2019-02-07T06:19:52.563Z,0.50
2019-02-07T06:22:22.749Z,0.50
2019-02-07T06:25:09.170Z,0.50
2019-02-07T06:27:40.901Z,0.50
2019-02-07T06:30:29.969Z,0.50
2019-02-07T06:33:09.536Z,0.50
2019-02-07T06:35:45.957Z,0.50
2019-02-07T06:38:16.165Z,0.50
2019-02-07T06:40:53.077Z,0.50
2019-02-07T06:43:24.039Z,0.50
2019-02-07T06:46:12.356Z,0.50
2019-02-07T06:48:51.712Z,0.50
2019-02-07T06:51:33.825Z,0.50
2019-02-07T06:54:13.054Z,0.50
2019-02-07T06:56:43.261Z,0.50
2019-02-07T06:59:16.347Z,0.50
2019-02-07T07:01:49.947Z,0.50
2019-02-07T07:04:32.359Z,0.50
2019-02-07T07:07:02.565Z,0.50
2019-02-07T07:09:51.442Z,0.50
2019-02-07T07:12:21.635Z,0.50
2019-02-07T07:14:51.946Z,0.50
2019-02-07T07:17:30.941Z,0.60
2019-02-07T07:20:02.167Z,0.60
2019-02-07T07:22:41.386Z,0.60
2019-02-07T07:25:23.535Z,0.60
2019-02-07T07:27:59.483Z,0.70
2019-02-07T07:30:46.260Z,0.80
2019-02-07T07:33:33.075Z,0.80
2019-02-07T07:36:09.797Z,0.90
2019-02-07T07:38:58.221Z,1.00
2019-02-07T07:41:34.251Z,1.10
2019-02-07T07:44:20.154Z,1.10
2019-02-07T07:46:55.964Z,1.20
2019-02-07T07:49:29.382Z,1.30
2019-02-07T07:52:05.834Z,1.40
2019-02-07T07:54:45.398Z,1.50
2019-02-07T07:57:18.830Z,1.70
2019-02-07T07:59:58.549Z,1.80
2019-02-07T08:02:41.635Z,2.00
2019-02-07T08:05:14.754Z,2.10
2019-02-07T08:07:47.475Z,2.20
2019-02-07T08:10:23.799Z,2.30
2019-02-07T08:13:10.650Z,2.50
2019-02-07T08:15:41.459Z,2.50
2019-02-07T08:18:17.270Z,2.60
2019-02-07T08:20:57.055Z,2.60
2019-02-07T08:23:39.232Z,2.60
2019-02-07T08:26:09.865Z,2.60
2019-02-07T08:28:42.879Z,2.60
2019-02-07T08:31:13.291Z,2.60
2019-02-07T08:33:43.552Z,2.60
2019-02-07T08:36:13.971Z,2.60
2019-02-07T08:38:44.212Z,2.60
2019-02-07T08:41:30.141Z,2.60
2019-02-07T08:44:15.322Z,2.60
2019-02-07T08:46:51.336Z,2.60
2019-02-07T08:49:36.776Z,2.60
2019-02-07T08:52:19.393Z,2.60
2019-02-07T08:55:05.614Z,2.60
2019-02-07T08:57:41.914Z,2.70
2019-02-07T09:00:18.345Z,2.70
2019-02-07T09:03:05.316Z,2.80
2019-02-07T09:05:53.037Z,2.90
2019-02-07T09:08:39.280Z,2.90
2019-02-07T09:11:16.459Z,3.00
2019-02-07T09:14:05.601Z,3.00
2019-02-07T09:16:41.454Z,3.10
2019-02-07T09:19:14.820Z,3.10
2019-02-07T09:21:45.166Z,3.20
2019-02-07T09:24:27.153Z,3.20
2019-02-07T09:27:14.038Z,3.20
2019-02-07T09:29:44.311Z,3.30
2019-02-07T09:32:24.354Z,3.30
2019-02-07T09:34:55.110Z,3.30
2019-02-07T09:37:34.517Z,3.30
2019-02-07T09:40:08.133Z,3.40
2019-02-07T09:42:41.340Z,3.50
2019-02-07T09:45:14.863Z,3.50
2019-02-07T09:47:50.910Z,3.50
2019-02-07T09:50:30.592Z,3.60
2019-02-07T09:53:23.554Z,3.60
2019-02-07T09:55:44.861Z,3.60
2019-02-07T09:58:15.249Z,3.60
2019-02-07T10:00:48.776Z,3.60
2019-02-07T10:03:22.212Z,3.70
2019-02-07T10:05:52.490Z,3.70
2019-02-07T10:08:23.676Z,3.70
2019-02-07T10:10:54.008Z,3.70
2019-02-07T10:13:27.407Z,3.80
2019-02-07T10:16:00.174Z,3.80
2019-02-07T10:18:46.884Z,3.90
2019-02-07T10:21:17.494Z,3.90
2019-02-07T10:23:50.602Z,4.00
2019-02-07T10:26:29.736Z,4.00
2019-02-07T10:29:18.698Z,4.00
2019-02-07T10:31:48.988Z,4.10
2019-02-07T10:34:34.304Z,4.20
2019-02-07T10:37:07.097Z,4.20
2019-02-07T10:39:54.192Z,4.20
2019-02-07T10:42:27.169Z,4.20
2019-02-07T10:45:00.983Z,4.30
2019-02-07T10:47:40.052Z,4.30
2019-02-07T10:50:14.984Z,4.40
2019-02-07T10:52:48.328Z,4.40
2019-02-07T10:55:20.498Z,4.40
2019-02-07T10:57:59.624Z,4.40
2019-02-07T11:00:32.098Z,4.50
2019-02-07T11:03:02.768Z,4.40
2019-02-07T11:05:33.279Z,4.40
2019-02-07T11:08:09.101Z,4.40
2019-02-07T11:10:56.244Z,4.40
2019-02-07T11:13:29.432Z,4.40
2019-02-07T11:16:18.230Z,4.50
2019-02-07T11:18:56.991Z,4.50
2019-02-07T11:21:29.874Z,4.50
2019-02-07T11:24:06.570Z,4.60
2019-02-07T11:26:51.698Z,4.60
2019-02-07T11:29:32.830Z,4.70
2019-02-07T11:32:03.166Z,4.70
2019-02-07T11:34:49.745Z,4.90
2019-02-07T11:37:36.108Z,5.00
2019-02-07T11:40:25.316Z,5.00
2019-02-07T11:42:55.562Z,5.10
2019-02-07T11:45:26.033Z,5.20
2019-02-07T11:48:02.384Z,5.30
2019-02-07T11:50:32.584Z,5.30
2019-02-07T11:53:09.166Z,5.30
2019-02-07T11:55:39.374Z,5.40
2019-02-07T11:58:12.954Z,5.40
2019-02-07T12:00:46.634Z,5.40
2019-02-07T12:03:16.834Z,5.50
2019-02-07T12:05:56.424Z,5.50
2019-02-07T12:08:41.405Z,5.50
2019-02-07T12:11:12.434Z,5.50
2019-02-07T12:13:58.102Z,5.60
2019-02-07T12:16:45.118Z,5.60
2019-02-07T12:19:21.716Z,5.60
2019-02-07T12:21:57.920Z,5.60
2019-02-07T12:24:28.260Z,5.60
2019-02-07T12:27:16.450Z,5.70
2019-02-07T12:29:53.111Z,5.70
2019-02-07T12:32:41.683Z,5.80
2019-02-07T12:35:26.632Z,5.80
2019-02-07T12:38:06.186Z,5.80
2019-02-07T12:40:36.830Z,5.80
2019-02-07T12:43:10.078Z,5.90
2019-02-07T12:45:40.356Z,5.90
2019-02-07T12:48:17.618Z,5.90
2019-02-07T12:50:54.155Z,5.90
2019-02-07T12:53:27.356Z,5.90
2019-02-07T12:55:57.560Z,5.90
2019-02-07T12:58:43.193Z,5.90
2019-02-07T13:01:14.891Z,5.90
2019-02-07T13:03:45.558Z,5.90
2019-02-07T13:06:32.235Z,5.90
2019-02-07T13:09:20.774Z,6.00
2019-02-07T13:12:05.818Z,6.00
2019-02-07T13:14:54.290Z,5.90
2019-02-07T13:17:42.131Z,5.90
2019-02-07T13:20:18.147Z,5.90
2019-02-07T13:22:54.127Z,5.90
2019-02-07T13:25:24.725Z,5.80
2019-02-07T13:28:03.681Z,5.80
2019-02-07T13:30:37.158Z,5.80
2019-02-07T13:33:09.628Z,5.70
2019-02-07T13:35:56.646Z,5.70
2019-02-07T13:38:39.075Z,5.70
2019-02-07T13:41:15.530Z,5.70
2019-02-07T13:43:57.466Z,5.70
2019-02-07T13:46:43.979Z,5.70
2019-02-07T13:49:14.366Z,5.70
2019-02-07T13:51:44.585Z,5.70
2019-02-07T13:54:33.616Z,5.60
2019-02-07T13:57:12.556Z,5.60
2019-02-07T14:00:00.292Z,5.60
2019-02-07T14:02:30.738Z,5.60
2019-02-07T14:05:17.186Z,5.50
2019-02-07T14:07:50.552Z,5.50
2019-02-07T14:10:24.085Z,5.40
2019-02-07T14:12:54.585Z,5.40
2019-02-07T14:15:31.308Z,5.40
2019-02-07T14:18:17.809Z,5.30
2019-02-07T14:20:51.192Z,5.30
2019-02-07T14:23:33.106Z,5.30
2019-02-07T14:26:15.596Z,5.20
2019-02-07T14:28:54.697Z,5.20
2019-02-07T14:31:41.288Z,5.20
2019-02-07T14:34:17.537Z,5.20
2019-02-07T14:36:48.233Z,5.10
2019-02-07T14:42:26.575Z,5.00
2019-02-07T14:45:09.035Z,5.10
2019-02-07T14:47:37.862Z,5.00
2019-02-07T14:50:15.032Z,5.00
2019-02-07T14:52:38.928Z,5.00
2019-02-07T14:55:09.619Z,4.90
2019-02-07T14:57:39.073Z,4.90
2019-02-07T15:00:19.486Z,4.80
2019-02-07T15:02:48.438Z,4.80
2019-02-07T15:05:17.245Z,4.80
2019-02-07T15:07:46.192Z,4.80
2019-02-07T15:10:17.915Z,4.70
2019-02-07T15:12:47.571Z,4.70
2019-02-07T15:15:19.824Z,4.70
2019-02-07T15:17:49.116Z,4.60
2019-02-07T15:20:25.773Z,4.60
2019-02-07T15:22:49.030Z,4.60
2019-02-07T15:25:18.029Z,4.50
2019-02-07T15:27:47.138Z,4.50
2019-02-07T15:30:20.520Z,4.50
2019-02-07T15:32:49.614Z,4.50
2019-02-07T15:35:24.578Z,4.50
2019-02-07T15:37:53.558Z,4.50
2019-02-07T15:40:25.582Z,4.50
2019-02-07T15:42:55.842Z,4.40
2019-02-07T15:45:24.950Z,4.40
2019-02-07T15:47:53.703Z,4.40
2019-02-07T15:50:24.427Z,4.40
2019-02-07T15:52:55.502Z,4.40
2019-02-07T15:55:24.507Z,4.30
2019-02-07T15:57:54.309Z,4.30
2019-02-07T16:00:28.684Z,4.30
2019-02-07T16:02:59.484Z,4.30
2019-02-07T16:05:28.315Z,4.30
2019-02-07T16:07:57.046Z,4.30
2019-02-07T16:10:25.676Z,4.30
2019-02-07T16:12:54.638Z,4.30
2019-02-07T16:15:23.330Z,4.30
2019-02-07T16:17:52.184Z,4.30
2019-02-07T16:20:48.691Z,4.30
2019-02-07T16:23:10.595Z,4.30
2019-02-07T16:25:39.229Z,4.20
2019-02-07T16:28:08.214Z,4.20
2019-02-07T16:30:37.544Z,4.20
2019-02-07T16:33:07.206Z,4.20
2019-02-07T16:35:38.140Z,4.10
2019-02-07T16:38:06.375Z,4.10
2019-02-07T16:40:35.003Z,4.10
2019-02-07T16:43:03.750Z,4.10
2019-02-07T16:45:32.463Z,4.10
2019-02-07T16:48:01.643Z,4.10
2019-02-07T16:50:34.830Z,4.10
2019-02-07T16:53:04.111Z,4.10
2019-02-07T16:55:32.907Z,4.10
2019-02-07T16:58:01.587Z,4.10
2019-02-07T17:00:35.735Z,4.10
2019-02-07T17:03:07.225Z,4.00
2019-02-07T17:05:37.882Z,4.10
2019-02-07T17:08:07.273Z,4.00
2019-02-07T17:10:38.185Z,4.00
2019-02-07T17:13:09.893Z,4.00
2019-02-07T17:15:38.902Z,4.00
2019-02-07T17:18:07.830Z,4.00
2019-02-07T17:20:36.466Z,4.00
2019-02-07T17:23:05.585Z,4.00
2019-02-07T17:25:34.181Z,4.00
2019-02-07T17:28:04.506Z,4.00
2019-02-07T17:30:33.631Z,3.90
2019-02-07T17:33:02.368Z,3.90
2019-02-07T17:35:31.003Z,3.90
2019-02-07T17:38:01.250Z,3.90
2019-02-07T17:40:29.852Z,3.90
2019-02-07T17:42:58.674Z,3.90
2019-02-07T17:45:31.983Z,3.90
2019-02-07T17:48:01.085Z,3.90
2019-02-07T17:50:40.238Z,3.90
2019-02-07T17:53:10.852Z,3.90
2019-02-07T17:55:39.588Z,3.80
2019-02-07T17:58:09.216Z,3.90
2019-02-07T18:00:48.227Z,3.90
2019-02-07T18:03:18.403Z,3.80
2019-02-07T18:05:46.959Z,3.80
2019-02-07T18:08:15.979Z,3.80
2019-02-07T18:10:44.866Z,3.80
2019-02-07T18:13:15.391Z,3.80
2019-02-07T18:15:44.022Z,3.80
2019-02-07T18:18:13.180Z,3.80
2019-02-07T18:20:41.832Z,3.80
2019-02-07T18:23:10.751Z,3.70
2019-02-07T18:25:39.325Z,3.70
2019-02-07T18:28:08.651Z,3.60
2019-02-07T18:30:37.420Z,3.70
2019-02-07T18:33:06.661Z,3.70
2019-02-07T18:35:35.373Z,3.70
2019-02-07T18:38:04.274Z,3.70
2019-02-07T18:40:33.407Z,3.70
2019-02-07T18:43:02.377Z,3.70
2019-02-07T18:45:31.287Z,3.70
2019-02-07T18:47:59.935Z,3.70
2019-02-07T18:50:40.472Z,3.70
2019-02-07T18:53:09.119Z,3.70
2019-02-07T18:55:38.080Z,3.70
2019-02-07T18:58:06.838Z,3.70
2019-02-07T19:00:37.429Z,3.80
2019-02-07T19:03:08.185Z,3.70
2019-02-07T19:05:37.460Z,3.70
2019-02-07T19:08:06.874Z,3.70
2019-02-07T19:10:36.383Z,3.70
2019-02-07T19:13:05.814Z,3.70
2019-02-07T19:15:56.373Z,3.70
2019-02-07T19:18:25.077Z,3.70
2019-02-07T19:20:53.854Z,3.70
2019-02-07T19:23:27.263Z,3.70
2019-02-07T19:26:00.513Z,3.70
2019-02-07T19:28:29.065Z,3.70
2019-02-07T19:30:57.896Z,3.70
2019-02-07T19:33:26.515Z,3.70
2019-02-07T19:35:55.479Z,3.70
2019-02-07T19:38:24.128Z,3.70
2019-02-07T19:40:52.953Z,3.70
2019-02-07T19:43:21.710Z,3.70
2019-02-07T19:45:50.641Z,3.80
2019-02-07T19:48:19.253Z,3.80
2019-02-07T19:50:48.202Z,3.80
2019-02-07T19:53:17.176Z,3.90
2019-02-07T19:55:45.983Z,3.90
2019-02-07T19:58:14.611Z,4.00
2019-02-07T20:00:43.355Z,4.00
2019-02-07T20:03:12.287Z,4.10
2019-02-07T20:05:41.344Z,4.10
2019-02-07T20:08:10.044Z,4.10
2019-02-07T20:10:39.127Z,4.10
2019-02-07T20:13:07.847Z,4.20
2019-02-07T20:15:42.033Z,4.20
2019-02-07T20:18:11.945Z,4.20
2019-02-07T20:20:41.607Z,4.20
2019-02-07T20:23:10.719Z,4.20
2019-02-07T20:25:39.796Z,4.20
2019-02-07T20:28:08.629Z,4.20
2019-02-07T20:30:42.745Z,4.30
2019-02-07T20:33:11.441Z,4.30
2019-02-07T20:35:40.531Z,4.30
2019-02-07T20:38:10.036Z,4.30
2019-02-07T20:40:38.798Z,4.30
2019-02-07T20:43:07.914Z,4.30
2019-02-07T20:45:36.740Z,4.30
2019-02-07T20:48:06.631Z,4.30
2019-02-07T20:50:35.362Z,4.30
2019-02-07T20:53:04.636Z,4.30
2019-02-07T20:55:33.703Z,4.30
2019-02-07T20:58:02.268Z,4.30
2019-02-07T21:00:33.012Z,4.30
2019-02-07T21:03:02.247Z,4.30
2019-02-07T21:05:32.490Z,4.30
2019-02-07T21:08:01.393Z,4.30
2019-02-07T21:10:32.983Z,4.30
2019-02-07T21:13:04.171Z,4.30
2019-02-07T21:15:33.002Z,4.30
2019-02-07T21:18:01.630Z,4.30
2019-02-07T21:20:31.451Z,4.30
2019-02-07T21:23:01.348Z,4.30
2019-02-07T21:25:42.290Z,4.30
2019-02-07T21:28:11.635Z,4.30
2019-02-07T21:30:40.485Z,4.20
2019-02-07T21:33:09.071Z,4.20
2019-02-07T21:35:37.972Z,4.20
2019-02-07T21:38:07.319Z,4.20
2019-02-07T21:40:36.143Z,4.20
2019-02-07T21:43:05.556Z,4.20
2019-02-07T21:45:34.875Z,4.20
2019-02-07T21:48:05.595Z,4.20
2019-02-07T21:50:34.478Z,4.20
2019-02-07T21:53:03.094Z,4.20
2019-02-07T21:55:33.911Z,4.20
2019-02-07T21:58:02.694Z,4.20
2019-02-07T22:00:40.181Z,4.10
2019-02-07T22:03:11.131Z,4.10
2019-02-07T22:05:40.339Z,4.10
2019-02-07T22:08:10.240Z,4.10
2019-02-07T22:10:39.189Z,4.10
2019-02-07T22:13:08.120Z,4.10
2019-02-07T22:15:36.912Z,4.10
2019-02-07T22:18:06.622Z,4.10
2019-02-07T22:20:35.345Z,4.10
2019-02-07T22:23:04.331Z,4.10
2019-02-07T22:25:34.527Z,4.10
2019-02-07T22:28:06.080Z,4.10
2019-02-07T22:30:36.706Z,4.10
2019-02-07T22:33:07.092Z,4.10
2019-02-07T22:35:36.325Z,4.10
2019-02-07T22:38:06.646Z,4.10
2019-02-07T22:40:35.283Z,4.10
2019-02-07T22:43:04.215Z,4.10
2019-02-07T22:45:33.123Z,4.10
2019-02-07T22:48:01.833Z,4.10
2019-02-07T22:50:31.759Z,4.20
2019-02-07T22:53:03.592Z,4.20
2019-02-07T22:55:32.300Z,4.10
2019-02-07T22:58:01.480Z,4.20
2019-02-07T23:00:35.053Z,4.20
2019-02-07T23:03:18.478Z,4.20
2019-02-07T23:05:47.579Z,4.20
2019-02-07T23:08:16.248Z,4.20
2019-02-07T23:10:45.543Z,4.20
2019-02-07T23:13:14.674Z,4.20
2019-02-07T23:15:43.694Z,4.20
2019-02-07T23:18:12.390Z,4.20
2019-02-07T23:20:40.961Z,4.20
2019-02-07T23:23:11.379Z,4.20
2019-02-07T23:25:40.755Z,4.20
2019-02-07T23:28:10.127Z,4.20
2019-02-07T23:30:39.240Z,4.20
2019-02-07T23:33:08.639Z,4.10
2019-02-07T23:35:37.203Z,4.10
2019-02-07T23:38:06.143Z,4.00
2019-02-07T23:40:34.979Z,4.00
2019-02-07T23:43:05.308Z,4.00
2019-02-07T23:45:33.879Z,3.90
2019-02-07T23:48:02.726Z,3.90
2019-02-07T23:50:31.308Z,3.90
2019-02-07T23:53:00.179Z,3.90
2019-02-07T23:55:28.766Z,3.80
2019-02-07T23:57:57.757Z,3.80
